Terminal Aerodrome Forecast
Issued by NWS Flagstaff, AZ

Home | Current Version | Previous Version | Text Only | Print | Product List | Glossary On
Versions: 1 2 3 4 5 6 7 8 9 10 11 12 13 14 15 16 17 18
000
FTUS45 KFGZ 222343
TAFINW
TAF
KINW 222343Z 2300/2324 VRB06KT P6SM SCT130 SCT250
     FM230400 VRB05KT P6SM FEW250
     FM232100 26009KT P6SM FEW110=

USA.gov is the U.S. government's official web portal to all federal, state and local government web resources and services.